createdAt,value
2022-09-29T00:01:06.863Z,6.65
2022-09-29T00:03:34.716Z,9.75
2022-09-29T00:06:02.167Z,8.35
2022-09-29T00:08:32.376Z,9.38
2022-09-29T00:10:59.644Z,8.30
2022-09-29T00:13:26.769Z,7.43
2022-09-29T00:15:59.236Z,8.15
2022-09-29T00:18:27.380Z,7.40
2022-09-29T00:21:06.831Z,7.60
2022-09-29T00:23:35.472Z,7.10
2022-09-29T00:26:15.038Z,6.65
2022-09-29T00:28:48.597Z,6.30
2022-09-29T00:31:16.485Z,8.98
2022-09-29T00:33:43.783Z,6.25
2022-09-29T00:36:14.655Z,7.97
2022-09-29T00:38:43.549Z,8.52
2022-09-29T00:41:19.819Z,6.78
2022-09-29T00:44:00.481Z,7.00
2022-09-29T00:46:49.485Z,10.70
2022-09-29T00:49:41.513Z,7.10
2022-09-29T00:52:17.323Z,11.20
2022-09-29T00:54:56.655Z,11.05
2022-09-29T00:57:28.121Z,13.30
2022-09-29T01:00:08.653Z,14.30
2022-09-29T01:02:43.012Z,15.18
2022-09-29T01:05:15.977Z,16.75
2022-09-29T01:07:44.849Z,16.55
2022-09-29T01:10:17.218Z,10.27
2022-09-29T01:12:47.285Z,16.98
2022-09-29T01:15:16.759Z,17.58
2022-09-29T01:17:44.272Z,17.35
2022-09-29T01:20:16.364Z,16.70
2022-09-29T01:22:49.581Z,12.68
2022-09-29T01:26:02.481Z,16.58
2022-09-29T01:29:17.381Z,11.63
2022-09-29T01:31:50.454Z,14.80
2022-09-29T01:34:29.762Z,14.52
2022-09-29T01:37:38.531Z,15.23
2022-09-29T01:40:17.057Z,12.32
2022-09-29T01:43:16.514Z,15.02
2022-09-29T01:46:13.077Z,10.63
2022-09-29T01:48:45.381Z,13.43
2022-09-29T01:51:19.225Z,12.30
2022-09-29T01:53:51.081Z,12.20
2022-09-29T01:56:28.961Z,10.40
2022-09-29T01:59:01.918Z,12.07
2022-09-29T02:01:36.286Z,12.20
2022-09-29T02:06:37.656Z,12.95
2022-09-29T02:09:09.836Z,13.32
2022-09-29T02:11:41.424Z,11.75
2022-09-29T02:14:11.549Z,13.55
2022-09-29T02:16:48.459Z,10.63
2022-09-29T02:19:25.223Z,13.30
2022-09-29T02:21:54.668Z,13.23
2022-09-29T02:24:23.853Z,11.90
2022-09-29T02:26:52.330Z,12.10
2022-09-29T02:29:19.928Z,11.88
2022-09-29T02:31:48.578Z,11.80
2022-09-29T02:34:19.218Z,9.98
2022-09-29T02:36:59.381Z,8.85
2022-09-29T02:39:41.991Z,11.52
2022-09-29T02:42:18.217Z,9.05
2022-09-29T02:45:04.074Z,11.55
2022-09-29T02:48:08.890Z,11.15
2022-09-29T02:50:53.635Z,10.93
2022-09-29T02:53:57.209Z,10.80
2022-09-29T02:56:45.681Z,9.05
2022-09-29T02:59:21.547Z,10.38
2022-09-29T03:01:54.763Z,11.60
2022-09-29T03:04:25.193Z,9.13
2022-09-29T03:06:53.699Z,10.05
2022-09-29T03:09:21.553Z,7.82
2022-09-29T03:11:49.681Z,7.75
2022-09-29T03:14:16.854Z,7.70
2022-09-29T03:16:44.651Z,11.05
2022-09-29T03:19:12.102Z,12.77
2022-09-29T03:21:39.214Z,13.00
2022-09-29T03:24:07.011Z,10.18
2022-09-29T03:26:37.292Z,12.90
2022-09-29T03:29:04.582Z,10.98
2022-09-29T03:31:31.851Z,13.20
2022-09-29T03:33:59.378Z,12.35
2022-09-29T03:36:27.427Z,12.63
2022-09-29T03:38:54.521Z,14.32
2022-09-29T03:41:21.670Z,11.70
2022-09-29T03:43:49.125Z,12.38
2022-09-29T03:46:16.264Z,13.88
2022-09-29T03:48:43.713Z,14.43
2022-09-29T03:51:11.127Z,11.68
2022-09-29T03:53:38.463Z,10.80
2022-09-29T03:56:08.253Z,10.38
2022-09-29T03:58:35.537Z,10.60
2022-09-29T04:01:03.106Z,11.55
2022-09-29T04:03:30.260Z,11.75
2022-09-29T04:05:57.372Z,12.63
2022-09-29T04:08:25.805Z,11.55
2022-09-29T04:10:53.120Z,8.82
2022-09-29T04:13:21.872Z,10.55
2022-09-29T04:15:49.773Z,9.35
2022-09-29T04:18:17.635Z,9.50
2022-09-29T04:20:48.027Z,10.95
2022-09-29T04:23:16.008Z,9.13
2022-09-29T04:25:46.061Z,8.20
2022-09-29T04:28:14.698Z,7.40
2022-09-29T04:30:41.994Z,7.45
2022-09-29T04:33:10.144Z,8.40
2022-09-29T04:35:37.325Z,7.45
2022-09-29T04:38:04.849Z,6.70
2022-09-29T04:40:32.633Z,8.25
2022-09-29T04:42:59.821Z,8.70
2022-09-29T04:45:27.248Z,8.82
2022-09-29T04:47:54.663Z,8.98
2022-09-29T04:50:23.666Z,9.27
2022-09-29T04:52:51.738Z,9.70
2022-09-29T04:55:19.241Z,9.48
2022-09-29T04:57:47.310Z,9.20
2022-09-29T05:00:15.740Z,7.40
2022-09-29T05:02:49.471Z,6.90
2022-09-29T05:05:17.705Z,10.82
2022-09-29T05:07:45.975Z,9.45
2022-09-29T05:10:14.057Z,7.95
2022-09-29T05:12:41.465Z,10.02
2022-09-29T05:15:09.458Z,8.45
2022-09-29T05:17:36.633Z,8.02
2022-09-29T05:20:04.297Z,10.68
2022-09-29T05:22:31.739Z,7.38
2022-09-29T05:24:59.151Z,6.90
2022-09-29T05:27:26.616Z,7.70
2022-09-29T05:29:54.117Z,7.32
2022-09-29T05:32:21.253Z,8.32
2022-09-29T05:34:48.421Z,10.60
2022-09-29T05:37:15.666Z,9.93
2022-09-29T05:39:45.021Z,8.77
2022-09-29T05:42:12.449Z,11.25
2022-09-29T05:44:39.749Z,10.02
2022-09-29T05:47:07.195Z,10.00
2022-09-29T05:49:37.099Z,9.57
2022-09-29T05:52:04.874Z,9.38
2022-09-29T05:54:32.088Z,11.65
2022-09-29T05:56:59.675Z,10.50
2022-09-29T05:59:29.125Z,10.57
2022-09-29T06:01:56.374Z,11.63
2022-09-29T06:04:24.072Z,9.10
2022-09-29T06:06:51.308Z,10.70
2022-09-29T06:09:18.614Z,9.48
2022-09-29T06:11:45.913Z,8.93
2022-09-29T06:14:14.227Z,8.65
2022-09-29T06:16:41.971Z,7.55
2022-09-29T06:19:09.240Z,7.45
2022-09-29T06:21:37.960Z,7.50
2022-09-29T06:24:07.360Z,7.05
2022-09-29T06:26:34.912Z,6.85
2022-09-29T06:29:05.357Z,7.00
2022-09-29T06:31:33.541Z,7.57
2022-09-29T06:34:02.853Z,6.97
2022-09-29T06:37:08.570Z,6.22
2022-09-29T06:39:37.472Z,6.20
2022-09-29T06:42:05.448Z,5.60
2022-09-29T06:44:32.947Z,7.15
2022-09-29T06:47:00.325Z,6.88
2022-09-29T06:49:27.573Z,5.65
2022-09-29T06:51:55.026Z,6.00
2022-09-29T06:54:27.066Z,5.65
2022-09-29T06:56:55.686Z,5.55
2022-09-29T06:59:23.390Z,5.60
2022-09-29T07:01:51.534Z,5.07
2022-09-29T07:04:21.796Z,5.22
2022-09-29T07:06:50.259Z,5.18
2022-09-29T07:09:18.261Z,6.20
2022-09-29T07:11:48.025Z,6.03
2022-09-29T07:14:20.640Z,4.88
2022-09-29T07:16:48.678Z,5.25
2022-09-29T07:19:18.430Z,6.28
2022-09-29T07:21:46.950Z,5.63
2022-09-29T07:24:14.901Z,6.43
2022-09-29T07:26:42.453Z,6.07
2022-09-29T07:29:14.924Z,5.60
2022-09-29T07:31:50.987Z,5.65
2022-09-29T07:34:21.274Z,5.55
2022-09-29T07:36:49.053Z,5.55
2022-09-29T07:39:16.515Z,4.93
2022-09-29T07:41:43.864Z,5.38
2022-09-29T07:44:11.760Z,5.38
2022-09-29T07:46:39.177Z,5.00
2022-09-29T07:49:06.552Z,4.72
2022-09-29T07:51:33.739Z,4.40
2022-09-29T07:54:05.395Z,4.43
2022-09-29T07:56:33.226Z,4.88
2022-09-29T07:59:03.497Z,5.28
2022-09-29T08:01:32.064Z,4.75
2022-09-29T08:04:02.713Z,5.20
2022-09-29T08:06:31.339Z,5.20
2022-09-29T08:09:04.975Z,4.72
2022-09-29T08:11:38.665Z,4.57
2022-09-29T08:14:07.111Z,4.65
2022-09-29T08:16:35.102Z,4.60
2022-09-29T08:19:07.089Z,5.00
2022-09-29T08:21:39.701Z,5.40
2022-09-29T08:24:08.022Z,4.63
2022-09-29T08:26:43.885Z,5.13
2022-09-29T08:29:17.624Z,4.97
2022-09-29T08:31:46.329Z,4.53
2022-09-29T08:34:14.231Z,4.95
2022-09-29T08:36:44.215Z,4.47
2022-09-29T08:39:12.270Z,5.25
2022-09-29T08:42:42.255Z,4.63
2022-09-29T08:45:24.136Z,4.38
2022-09-29T08:47:53.118Z,4.85
2022-09-29T08:50:37.565Z,4.50
2022-09-29T08:53:24.123Z,4.63
2022-09-29T08:55:58.885Z,4.60
2022-09-29T08:58:26.355Z,5.22
2022-09-29T09:01:02.664Z,4.53
2022-09-29T09:03:48.356Z,4.70
2022-09-29T09:06:18.965Z,5.40
2022-09-29T09:09:11.868Z,5.10
2022-09-29T09:11:42.315Z,4.70
2022-09-29T09:14:58.313Z,4.40
2022-09-29T09:17:59.807Z,4.70
2022-09-29T09:20:55.273Z,4.28
2022-09-29T09:23:41.162Z,4.18
2022-09-29T09:26:10.507Z,3.90
2022-09-29T09:28:51.502Z,4.13
2022-09-29T09:31:27.309Z,4.03
2022-09-29T09:34:06.761Z,3.97
2022-09-29T09:36:44.937Z,4.35
2022-09-29T09:39:17.584Z,3.80
2022-09-29T09:41:50.156Z,3.83
2022-09-29T09:44:26.203Z,4.40
2022-09-29T09:47:03.199Z,4.20
2022-09-29T09:49:38.624Z,3.92
2022-09-29T09:52:16.594Z,4.03
2022-09-29T09:54:48.033Z,3.50
2022-09-29T09:57:57.293Z,4.28
2022-09-29T10:00:31.398Z,3.92
2022-09-29T10:03:04.988Z,3.30
2022-09-29T10:05:45.720Z,3.50
2022-09-29T10:08:29.536Z,3.58
2022-09-29T10:10:59.558Z,3.23
2022-09-29T10:13:32.606Z,3.40
2022-09-29T10:16:20.036Z,3.50
2022-09-29T10:18:54.020Z,3.20
2022-09-29T10:21:40.488Z,2.85
2022-09-29T10:24:31.310Z,2.47
2022-09-29T10:27:02.993Z,2.60
2022-09-29T10:29:44.455Z,2.78
2022-09-29T10:32:27.690Z,2.85
2022-09-29T10:35:16.880Z,3.75
2022-09-29T10:37:48.698Z,2.90
2022-09-29T10:40:21.700Z,2.58
2022-09-29T10:42:52.106Z,2.65
2022-09-29T10:45:23.540Z,2.88
2022-09-29T10:48:00.791Z,2.60
2022-09-29T10:51:04.535Z,2.30
2022-09-29T10:53:32.232Z,2.70
2022-09-29T10:56:02.557Z,2.42
2022-09-29T10:58:53.264Z,2.47
2022-09-29T11:01:28.729Z,2.50
2022-09-29T11:04:03.626Z,2.22
2022-09-29T11:06:34.282Z,2.95
2022-09-29T11:09:08.032Z,2.97
2022-09-29T11:11:39.104Z,2.72
2022-09-29T11:14:42.505Z,3.00
2022-09-29T11:17:28.952Z,2.65
2022-09-29T11:20:00.506Z,3.58
2022-09-29T11:22:55.747Z,3.10
2022-09-29T11:25:52.762Z,3.40
2022-09-29T11:28:34.358Z,2.60
2022-09-29T11:31:31.457Z,2.90
2022-09-29T11:34:55.320Z,2.70
2022-09-29T11:37:47.433Z,2.70
2022-09-29T11:40:38.113Z,2.35
2022-09-29T11:43:31.414Z,2.58
2022-09-29T11:46:24.424Z,2.60
2022-09-29T11:49:09.041Z,2.55
2022-09-29T11:52:06.231Z,3.08
2022-09-29T11:54:51.613Z,2.88
2022-09-29T11:57:47.511Z,2.85
2022-09-29T12:00:19.304Z,2.88
2022-09-29T12:03:17.140Z,2.80
2022-09-29T12:06:10.592Z,3.08
2022-09-29T12:08:56.828Z,5.05
2022-09-29T12:12:11.748Z,5.07
2022-09-29T12:15:16.897Z,3.65
2022-09-29T12:17:49.144Z,4.28
2022-09-29T12:20:27.398Z,3.75
2022-09-29T12:22:58.550Z,3.38
2022-09-29T12:25:29.663Z,3.25
2022-09-29T12:28:13.030Z,3.05
2022-09-29T12:30:47.311Z,3.00
2022-09-29T12:33:33.526Z,2.70
2022-09-29T12:36:53.909Z,2.70
2022-09-29T12:39:36.746Z,2.80
2022-09-29T12:42:42.043Z,3.10
2022-09-29T12:45:30.578Z,3.88
2022-09-29T12:48:17.783Z,4.97
2022-09-29T12:51:11.433Z,4.50
2022-09-29T12:53:49.890Z,4.25
2022-09-29T12:56:49.691Z,3.80
2022-09-29T12:59:29.490Z,4.10
2022-09-29T13:01:58.395Z,4.57
2022-09-29T13:04:54.835Z,3.92
2022-09-29T13:07:48.506Z,4.05
2022-09-29T13:10:34.796Z,4.65
2022-09-29T13:13:22.121Z,4.68
2022-09-29T13:16:24.155Z,4.70
2022-09-29T13:19:22.941Z,4.80
2022-09-29T13:22:25.369Z,4.50
2022-09-29T13:25:05.095Z,3.40
2022-09-29T13:27:45.821Z,4.00
2022-09-29T13:30:16.173Z,4.03
2022-09-29T13:32:48.890Z,3.40
2022-09-29T13:35:24.688Z,3.63
2022-09-29T13:38:05.523Z,3.20
2022-09-29T13:40:33.820Z,2.95
2022-09-29T13:43:05.376Z,2.67
2022-09-29T13:45:35.749Z,3.30
2022-09-29T13:48:32.368Z,2.75
2022-09-29T13:51:23.594Z,2.90
2022-09-29T13:54:24.140Z,2.80
2022-09-29T13:57:07.286Z,2.60
2022-09-29T13:59:36.008Z,2.47
2022-09-29T14:02:36.740Z,2.58
2022-09-29T14:05:27.051Z,2.78
2022-09-29T14:10:36.423Z,2.38
2022-09-29T14:13:13.828Z,2.45
2022-09-29T14:16:03.573Z,2.70
2022-09-29T14:18:37.317Z,2.65
2022-09-29T14:21:14.650Z,2.85
2022-09-29T14:23:47.117Z,2.47
2022-09-29T14:26:48.017Z,2.85
2022-09-29T14:29:24.224Z,2.53
2022-09-29T14:31:57.517Z,2.63
2022-09-29T14:34:31.630Z,2.78
2022-09-29T14:37:00.652Z,2.30
2022-09-29T14:39:29.764Z,2.97
2022-09-29T14:41:57.118Z,3.33
2022-09-29T14:44:53.052Z,2.92
2022-09-29T14:47:48.401Z,3.47
2022-09-29T14:53:49.600Z,3.00
2022-09-29T14:56:45.372Z,3.50
2022-09-29T15:00:20.706Z,3.33
2022-09-29T15:03:00.032Z,3.60
2022-09-29T15:05:38.137Z,3.50
2022-09-29T15:08:28.314Z,3.42
2022-09-29T15:10:58.235Z,3.95
2022-09-29T15:13:33.168Z,4.22
2022-09-29T15:16:30.026Z,4.13
2022-09-29T15:19:31.016Z,3.92
2022-09-29T15:22:08.207Z,3.80
2022-09-29T15:24:50.307Z,4.00
2022-09-29T15:27:18.472Z,3.70
2022-09-29T15:29:48.643Z,3.97
2022-09-29T15:32:27.550Z,5.03
2022-09-29T15:35:03.860Z,5.70
2022-09-29T15:37:51.314Z,5.65
2022-09-29T15:40:21.635Z,5.75
2022-09-29T15:42:49.227Z,6.15
2022-09-29T15:45:22.153Z,6.75
2022-09-29T15:47:59.761Z,6.30
2022-09-29T15:50:31.382Z,7.15
2022-09-29T15:53:03.658Z,6.65
2022-09-29T15:55:35.133Z,7.43
2022-09-29T15:58:31.407Z,7.85
2022-09-29T16:01:06.709Z,8.15
2022-09-29T16:03:45.034Z,8.57
2022-09-29T16:06:25.570Z,8.80
2022-09-29T16:09:07.958Z,8.45
2022-09-29T16:11:38.322Z,20.10
2022-09-29T16:14:16.738Z,13.65
2022-09-29T16:16:49.632Z,10.35
2022-09-29T16:19:26.786Z,10.57
2022-09-29T16:21:58.676Z,11.15
2022-09-29T16:24:32.187Z,11.15
2022-09-29T16:27:00.857Z,10.55
2022-09-29T16:29:37.083Z,12.75
2022-09-29T16:32:41.334Z,15.00
2022-09-29T16:35:43.689Z,13.18
2022-09-29T16:38:23.980Z,16.40
2022-09-29T16:40:53.667Z,17.55
2022-09-29T16:43:26.668Z,15.63
2022-09-29T16:45:57.173Z,14.23
2022-09-29T16:48:26.349Z,14.27
2022-09-29T16:50:58.250Z,13.30
2022-09-29T16:53:30.334Z,13.32
2022-09-29T16:56:06.685Z,13.05
2022-09-29T16:58:34.649Z,14.32
2022-09-29T17:01:03.865Z,14.75
2022-09-29T17:03:31.287Z,16.88
2022-09-29T17:06:05.196Z,17.45
2022-09-29T17:08:37.709Z,24.00
2022-09-29T17:11:05.258Z,26.52
2022-09-29T17:13:35.460Z,23.27
2022-09-29T17:16:05.971Z,20.67
2022-09-29T17:18:33.315Z,20.00
2022-09-29T17:21:00.522Z,19.65
2022-09-29T17:23:27.800Z,19.40
2022-09-29T17:26:15.006Z,18.67
2022-09-29T17:28:42.328Z,18.60
2022-09-29T17:31:13.317Z,18.05
2022-09-29T17:33:42.095Z,17.80
2022-09-29T17:36:14.868Z,19.00
2022-09-29T17:38:42.612Z,17.33
2022-09-29T17:41:17.098Z,17.15
2022-09-29T17:46:16.561Z,16.63
2022-09-29T17:48:44.129Z,17.90
2022-09-29T17:51:21.390Z,19.02
2022-09-29T17:53:50.786Z,17.60
2022-09-29T17:56:27.544Z,18.67
2022-09-29T17:58:55.833Z,19.20
2022-09-29T18:01:26.450Z,19.20
2022-09-29T18:03:54.283Z,19.25
2022-09-29T18:06:25.329Z,21.25
2022-09-29T18:08:54.805Z,20.77
2022-09-29T18:11:24.750Z,20.73
2022-09-29T18:13:52.303Z,21.85
2022-09-29T18:16:22.607Z,20.38
2022-09-29T18:18:57.920Z,22.50
2022-09-29T18:21:26.413Z,24.90
2022-09-29T18:23:53.761Z,28.65
2022-09-29T18:26:21.774Z,25.75
2022-09-29T18:28:51.499Z,24.65
2022-09-29T18:31:24.719Z,23.17
2022-09-29T18:33:52.332Z,21.33
2022-09-29T18:36:19.714Z,24.38
2022-09-29T18:38:47.798Z,25.63
2022-09-29T18:41:20.204Z,24.45
2022-09-29T18:43:48.510Z,27.75
2022-09-29T18:46:18.068Z,26.73
2022-09-29T18:48:46.042Z,26.13
2022-09-29T18:51:17.639Z,26.15
2022-09-29T18:53:48.166Z,26.00
2022-09-29T18:56:18.384Z,26.63
2022-09-29T18:58:45.889Z,27.80
2022-09-29T19:01:16.721Z,25.75
2022-09-29T19:03:44.162Z,26.50
2022-09-29T19:06:18.214Z,25.52
2022-09-29T19:08:49.302Z,25.87
2022-09-29T19:11:21.312Z,25.05
2022-09-29T19:13:51.812Z,26.15
2022-09-29T19:16:21.652Z,24.38
2022-09-29T19:18:52.343Z,24.08
2022-09-29T19:21:19.675Z,22.90
2022-09-29T19:23:47.063Z,22.55
2022-09-29T19:26:20.146Z,21.50
2022-09-29T19:28:48.310Z,21.90
2022-09-29T19:31:19.514Z,21.85
2022-09-29T19:33:48.109Z,21.20
2022-09-29T19:36:19.620Z,19.08
2022-09-29T19:38:48.150Z,18.60
2022-09-29T19:41:23.156Z,19.58
2022-09-29T19:43:51.510Z,19.92
2022-09-29T19:46:20.627Z,19.42
2022-09-29T19:48:48.497Z,21.50
2022-09-29T19:51:35.700Z,22.33
2022-09-29T19:54:12.726Z,22.65
2022-09-29T19:56:42.276Z,21.65
2022-09-29T19:59:10.882Z,22.55
2022-09-29T20:01:38.199Z,21.55
2022-09-29T20:04:12.009Z,22.70
2022-09-29T20:06:40.383Z,23.77
2022-09-29T20:09:10.621Z,22.95
2022-09-29T20:11:40.491Z,23.48
2022-09-29T20:14:12.097Z,30.83
2022-09-29T20:16:41.743Z,26.08
2022-09-29T20:19:11.252Z,30.60
2022-09-29T20:21:44.461Z,24.92
2022-09-29T20:24:14.861Z,24.40
2022-09-29T20:26:45.095Z,24.95
2022-09-29T20:29:13.081Z,31.85
2022-09-29T20:31:40.545Z,35.05
2022-09-29T20:34:08.373Z,26.88
2022-09-29T20:36:35.765Z,26.05
2022-09-29T20:39:03.912Z,26.25
2022-09-29T20:41:31.653Z,26.35
2022-09-29T20:44:00.593Z,24.48
2022-09-29T20:46:28.181Z,25.08
2022-09-29T20:48:58.117Z,24.98
2022-09-29T20:51:26.722Z,24.27
2022-09-29T20:53:59.313Z,25.50
2022-09-29T20:56:33.615Z,24.13
2022-09-29T20:59:00.977Z,27.20
2022-09-29T21:01:30.473Z,17.55
2022-09-29T21:04:08.219Z,19.98
2022-09-29T21:06:41.236Z,24.75
2022-09-29T21:09:11.510Z,24.45
2022-09-29T21:11:40.280Z,23.95
2022-09-29T21:14:13.608Z,25.95
2022-09-29T21:16:45.263Z,25.80
2022-09-29T21:19:13.079Z,18.65
2022-09-29T21:21:41.443Z,17.77
2022-09-29T21:24:09.232Z,17.33
2022-09-29T21:26:36.613Z,15.25
2022-09-29T21:29:04.524Z,14.75
2022-09-29T21:31:34.403Z,13.70
2022-09-29T21:34:07.588Z,15.27
2022-09-29T21:36:37.172Z,14.60
2022-09-29T21:39:08.543Z,13.23
2022-09-29T21:41:41.510Z,14.90
2022-09-29T21:44:23.559Z,17.80
2022-09-29T21:46:51.182Z,17.77
2022-09-29T21:49:19.644Z,18.23
2022-09-29T21:51:49.569Z,19.48
2022-09-29T21:54:19.402Z,19.13
2022-09-29T21:56:47.703Z,19.75
2022-09-29T21:59:17.645Z,18.52
2022-09-29T22:01:46.661Z,19.58
2022-09-29T22:04:14.683Z,19.83
2022-09-29T22:06:45.533Z,18.67
2022-09-29T22:09:20.252Z,18.40
2022-09-29T22:11:50.497Z,18.77
2022-09-29T22:14:19.518Z,18.85
2022-09-29T22:16:47.118Z,18.48
2022-09-29T22:19:29.961Z,19.50
2022-09-29T22:21:57.498Z,18.17
2022-09-29T22:24:27.029Z,18.85
2022-09-29T22:26:55.399Z,19.25
2022-09-29T22:29:23.660Z,20.98
2022-09-29T22:31:51.367Z,19.00
2022-09-29T22:34:18.931Z,18.27
2022-09-29T22:36:46.297Z,19.45
2022-09-29T22:39:13.534Z,19.80
2022-09-29T22:41:41.379Z,20.33
2022-09-29T22:44:09.201Z,20.38
2022-09-29T22:46:37.493Z,22.05
2022-09-29T22:49:04.844Z,21.35
2022-09-29T22:51:32.337Z,17.70
2022-09-29T22:53:59.808Z,20.45
2022-09-29T22:56:30.971Z,25.20
2022-09-29T22:59:04.008Z,23.90
2022-09-29T23:01:31.710Z,23.48
2022-09-29T23:03:59.205Z,22.38
2022-09-29T23:06:26.454Z,22.10
2022-09-29T23:08:56.264Z,24.02
2022-09-29T23:11:24.289Z,22.67
2022-09-29T23:13:53.005Z,24.98
2022-09-29T23:16:20.812Z,26.27
2022-09-29T23:18:53.588Z,22.15
2022-09-29T23:21:21.246Z,19.90
2022-09-29T23:23:53.048Z,23.85
2022-09-29T23:26:20.270Z,19.40
2022-09-29T23:28:50.005Z,21.02
2022-09-29T23:31:17.558Z,20.50
2022-09-29T23:33:45.021Z,24.48
2022-09-29T23:36:14.971Z,21.20
2022-09-29T23:39:02.050Z,21.13
2022-09-29T23:41:30.707Z,20.92
2022-09-29T23:44:00.491Z,27.08
2022-09-29T23:46:31.915Z,27.73
2022-09-29T23:49:09.576Z,20.23
2022-09-29T23:51:40.116Z,25.50
2022-09-29T23:54:10.810Z,27.98
2022-09-29T23:56:38.293Z,21.35
2022-09-29T23:59:06.842Z,25.70
